DLH42Y LPPT-EDDF

Flight info

Callsign DLH42Y
Flight time 2h 37m
Altitude 36000
Route IXIDA DCT TOSDI DCT ZMR DCT NUBLO DCT RONSI DCT DELOG DCT PEXOD DCT DIDIG DCT TIRAV DCT ERJAZ DCT PIWIZ DCT TSU DCT OQQAL DCT RANUX/N0453F370 DCT VALEK DCT LUTAX DCT DIK/N0455F350 T856 NIVNU/N0426F230 T847 IMCOM IMCOM2C
Aircraft A320/M-SDE3FGHIRWY/LB1

Departure

Time 2026-04-13 10:03
Airport Lisbon Humberto Delgado Airport (LPPT)

Arrival

Time 2026-04-13 12:40
Airport Frankfurt Main Airport (EDDF)
Time Latitude Longitude Altitude Speed Heading
2026-04-13 09:24 38.77255 -9.13149 337 ft 0 kts 77°
2026-04-13 09:54 38.77252 -9.13170 333 ft 3 kts 82°
2026-04-13 09:54 38.77250 -9.13201 335 ft 3 kts 95°
2026-04-13 09:54 38.77255 -9.13229 333 ft 3 kts 124°
2026-04-13 09:54 38.77268 -9.13244 335 ft 1 kts 168°
2026-04-13 09:55 38.77272 -9.13245 336 ft 0 kts 168°
2026-04-13 09:58 38.77264 -9.13242 334 ft 4 kts 168°
2026-04-13 09:58 38.77215 -9.13229 336 ft 10 kts 168°
2026-04-13 09:58 38.77132 -9.13206 337 ft 14 kts 168°
2026-04-13 09:59 38.77049 -9.13195 339 ft 11 kts 200°
2026-04-13 09:59 38.77014 -9.13264 337 ft 11 kts 236°
2026-04-13 09:59 38.76918 -9.13269 338 ft 16 kts 168°
2026-04-13 09:59 38.76824 -9.13244 340 ft 12 kts 169°
2026-04-13 10:00 38.76761 -9.13290 355 ft 11 kts 249°
2026-04-13 10:00 38.76735 -9.13390 351 ft 13 kts 233°
2026-04-13 10:00 38.76660 -9.13470 347 ft 15 kts 241°
2026-04-13 10:00 38.76633 -9.13615 347 ft 18 kts 258°
2026-04-13 10:01 38.76607 -9.13782 346 ft 20 kts 257°
2026-04-13 10:01 38.76579 -9.13949 348 ft 15 kts 258°
2026-04-13 10:01 38.76557 -9.14093 349 ft 18 kts 264°
2026-04-13 10:01 38.76597 -9.14247 338 ft 18 kts 292°
2026-04-13 10:02 38.76635 -9.14359 333 ft 11 kts 295°
2026-04-13 10:02 38.76691 -9.14363 336 ft 9 kts 23°
2026-04-13 10:02 38.76820 -9.14295 349 ft 48 kts 22°
2026-04-13 10:02 38.77340 -9.14016 363 ft 110 kts 22°
2026-04-13 10:03 38.78213 -9.13548 372 ft 159 kts 22°
2026-04-13 10:03 38.79244 -9.12937 938 ft 164 kts 19°
2026-04-13 10:03 38.80288 -9.12367 1739 ft 163 kts 17°
2026-04-13 10:03 38.81381 -9.11790 2173 ft 181 kts 19°
2026-04-13 10:04 38.82554 -9.10945 2457 ft 205 kts 25°
2026-04-13 10:04 38.83835 -9.09978 2830 ft 225 kts 26°
2026-04-13 10:04 38.85252 -9.08898 3257 ft 247 kts 27°
2026-04-13 10:04 38.86748 -9.07745 4059 ft 254 kts 27°
2026-04-13 10:05 38.88278 -9.06556 4975 ft 259 kts 27°
2026-04-13 10:05 38.89803 -9.05282 5864 ft 265 kts 36°
2026-04-13 10:05 38.91198 -9.03706 6784 ft 269 kts 38°
2026-04-13 10:05 38.92592 -9.02079 7608 ft 273 kts 38°
2026-04-13 10:06 38.94002 -9.00423 8455 ft 276 kts 38°
2026-04-13 10:06 38.95427 -8.98746 9290 ft 279 kts 39°
2026-04-13 10:06 38.96867 -8.97055 10159 ft 282 kts 38°
2026-04-13 10:06 38.98342 -8.95329 10687 ft 297 kts 38°
2026-04-13 10:07 38.99913 -8.93504 10927 ft 320 kts 38°
2026-04-13 10:07 39.01625 -8.91513 11119 ft 343 kts 39°
2026-04-13 10:07 39.03440 -8.89396 11423 ft 359 kts 39°
2026-04-13 10:07 39.05305 -8.87213 12077 ft 364 kts 39°
2026-04-13 10:08 39.07185 -8.85006 12791 ft 368 kts 39°
2026-04-13 10:08 39.09082 -8.82776 13516 ft 370 kts 39°
2026-04-13 10:08 39.10990 -8.80530 14204 ft 373 kts 39°
2026-04-13 10:08 39.12917 -8.78262 14805 ft 376 kts 39°
2026-04-13 10:09 39.14857 -8.75978 15392 ft 380 kts 38°
2026-04-13 10:09 39.16799 -8.73649 15959 ft 385 kts 41°
2026-04-13 10:09 39.18598 -8.71059 16537 ft 389 kts 44°
2026-04-13 10:09 39.20392 -8.68430 17108 ft 392 kts 44°
2026-04-13 10:10 39.22201 -8.65781 17661 ft 395 kts 43°
2026-04-13 10:10 39.24028 -8.63099 18209 ft 399 kts 43°
2026-04-13 10:10 39.25868 -8.60397 18708 ft 402 kts 43°
2026-04-13 10:10 39.27723 -8.57675 19174 ft 405 kts 43°
2026-04-13 10:11 39.29590 -8.54938 19618 ft 408 kts 43°
2026-04-13 10:11 39.31468 -8.52180 20083 ft 411 kts 43°
2026-04-13 10:11 39.33360 -8.49397 20537 ft 413 kts 43°
2026-04-13 10:11 39.35238 -8.46631 20976 ft 416 kts 43°
2026-04-13 10:12 39.37151 -8.43812 21408 ft 419 kts 43°
2026-04-13 10:12 39.39081 -8.40970 21852 ft 422 kts 43°
2026-04-13 10:12 39.41020 -8.38110 22274 ft 425 kts 43°
2026-04-13 10:12 39.42970 -8.35226 22684 ft 428 kts 43°
2026-04-13 10:13 39.44933 -8.32317 23117 ft 430 kts 43°
2026-04-13 10:13 39.46902 -8.29395 23526 ft 432 kts 43°
2026-04-13 10:13 39.48886 -8.26454 23903 ft 435 kts 43°
2026-04-13 10:13 39.50877 -8.23498 24249 ft 437 kts 43°
2026-04-13 10:14 39.52875 -8.20528 24607 ft 439 kts 42°
2026-04-13 10:14 39.54889 -8.17538 24938 ft 440 kts 42°
2026-04-13 10:14 39.56906 -8.14544 25282 ft 442 kts 42°
2026-04-13 10:14 39.58925 -8.11536 25613 ft 443 kts 42°
2026-04-13 10:15 39.60951 -8.08508 25934 ft 445 kts 42°
2026-04-13 10:15 39.62983 -8.05468 26266 ft 446 kts 42°
2026-04-13 10:15 39.65023 -8.02420 26579 ft 448 kts 42°
2026-04-13 10:15 39.67109 -7.99439 26885 ft 446 kts 39°
2026-04-13 10:16 39.69265 -7.96614 27183 ft 446 kts 37°
2026-04-13 10:16 39.71513 -7.93828 27490 ft 446 kts 36°
2026-04-13 10:16 39.73777 -7.91090 27884 ft 444 kts 36°
2026-04-13 10:16 39.76037 -7.88358 28321 ft 442 kts 36°
2026-04-13 10:17 39.78274 -7.85616 28759 ft 441 kts 36°
2026-04-13 10:17 39.80489 -7.82855 29151 ft 440 kts 37°
2026-04-13 10:17 39.82689 -7.80075 29552 ft 439 kts 37°
2026-04-13 10:17 39.84867 -7.77298 29952 ft 438 kts 37°
2026-04-13 10:18 39.87038 -7.74525 30341 ft 436 kts 37°
2026-04-13 10:18 39.89201 -7.71764 30702 ft 434 kts 37°
2026-04-13 10:18 39.91349 -7.69022 31118 ft 431 kts 36°
2026-04-13 10:18 39.93484 -7.66301 31538 ft 428 kts 36°
2026-04-13 10:19 39.95609 -7.63599 31964 ft 425 kts 36°
2026-04-13 10:19 39.97715 -7.60924 32400 ft 421 kts 36°
2026-04-13 10:19 39.99779 -7.58295 32829 ft 419 kts 36°
2026-04-13 10:19 40.01859 -7.55640 33215 ft 417 kts 36°
2026-04-13 10:20 40.03934 -7.52990 33545 ft 417 kts 36°
2026-04-13 10:20 40.06001 -7.50349 33868 ft 415 kts 36°
2026-04-13 10:20 40.08058 -7.47716 34234 ft 413 kts 36°
2026-04-13 10:20 40.10105 -7.45093 34575 ft 412 kts 36°
2026-04-13 10:21 40.12148 -7.42472 34832 ft 411 kts 36°
2026-04-13 10:21 40.14195 -7.39850 35057 ft 412 kts 36°
2026-04-13 10:21 40.16242 -7.37227 35293 ft 413 kts 36°
2026-04-13 10:21 40.18295 -7.34595 35522 ft 413 kts 36°
2026-04-13 10:22 40.20347 -7.31961 35741 ft 414 kts 36°
2026-04-13 10:22 40.22405 -7.29320 35963 ft 414 kts 36°
2026-04-13 10:22 40.24461 -7.26678 36144 ft 415 kts 36°
2026-04-13 10:23 40.28620 -7.21326 36219 ft 422 kts 36°
2026-04-13 10:23 40.32798 -7.15905 36190 ft 423 kts 37°
2026-04-13 10:24 40.36985 -7.10470 36203 ft 424 kts 37°
2026-04-13 10:24 40.41147 -7.05072 36190 ft 423 kts 37°
2026-04-13 10:25 40.45335 -6.99631 36195 ft 424 kts 37°
2026-04-13 10:25 40.49524 -6.94181 36197 ft 424 kts 37°
2026-04-13 10:26 40.53710 -6.88721 36198 ft 424 kts 37°
2026-04-13 10:26 40.57899 -6.83258 36221 ft 424 kts 37°
2026-04-13 10:27 40.62082 -6.77777 36207 ft 424 kts 37°
2026-04-13 10:27 40.66265 -6.72283 36203 ft 424 kts 37°
2026-04-13 10:28 40.70443 -6.66788 36192 ft 424 kts 37°
2026-04-13 10:28 40.74620 -6.61288 36204 ft 424 kts 37°
2026-04-13 10:29 40.78803 -6.55789 36195 ft 424 kts 37°
2026-04-13 10:29 40.82948 -6.50307 36180 ft 425 kts 37°
2026-04-13 10:30 40.87143 -6.44744 36207 ft 425 kts 38°
2026-04-13 10:30 40.91288 -6.39245 36188 ft 425 kts 38°
2026-04-13 10:31 40.95458 -6.33698 36172 ft 425 kts 38°
2026-04-13 10:31 40.99634 -6.28151 36172 ft 425 kts 37°
2026-04-13 10:32 41.03957 -6.22862 36153 ft 422 kts 34°
2026-04-13 10:32 41.08372 -6.17733 36148 ft 422 kts 34°
2026-04-13 10:33 41.12773 -6.12575 36144 ft 423 kts 34°
2026-04-13 10:33 41.17145 -6.07344 36163 ft 423 kts 35°
2026-04-13 10:34 41.23671 -5.99480 36147 ft 424 kts 35°
2026-04-13 10:34 41.28040 -5.94222 36133 ft 424 kts 35°
2026-04-13 10:35 41.32417 -5.88946 36122 ft 424 kts 35°
2026-04-13 10:35 41.36793 -5.83666 36114 ft 425 kts 35°
2026-04-13 10:36 41.41169 -5.78372 36114 ft 425 kts 36°
2026-04-13 10:36 41.45544 -5.73069 36121 ft 426 kts 36°
2026-04-13 10:37 41.49926 -5.67746 36134 ft 426 kts 36°
2026-04-13 10:37 41.54632 -5.63154 36115 ft 414 kts 21°
2026-04-13 10:38 41.59850 -5.60145 36100 ft 411 kts 17°
2026-04-13 10:38 41.65124 -5.57166 36112 ft 411 kts 17°
2026-04-13 10:39 41.70398 -5.54178 36105 ft 412 kts 17°
2026-04-13 10:39 41.75678 -5.51187 36100 ft 412 kts 17°
2026-04-13 10:40 41.80964 -5.48194 36096 ft 413 kts 17°
2026-04-13 10:40 41.86258 -5.45201 36111 ft 413 kts 17°
2026-04-13 10:41 41.91553 -5.42196 36103 ft 413 kts 17°
2026-04-13 10:41 41.96845 -5.39176 36102 ft 414 kts 18°
2026-04-13 10:42 42.02144 -5.36148 36100 ft 414 kts 18°
2026-04-13 10:42 42.07443 -5.33113 36132 ft 414 kts 18°
2026-04-13 10:43 42.12746 -5.30073 36109 ft 414 kts 18°
2026-04-13 10:43 42.17156 -5.27543 36097 ft 415 kts 18°
2026-04-13 10:44 42.22470 -5.24487 36091 ft 415 kts 18°
2026-04-13 10:44 42.28643 -5.20934 36086 ft 415 kts 18°
2026-04-13 10:45 42.33099 -5.18366 36089 ft 415 kts 18°
2026-04-13 10:45 42.38380 -5.15313 36082 ft 416 kts 18°
2026-04-13 10:46 42.43699 -5.12232 36081 ft 416 kts 18°
2026-04-13 10:46 42.49023 -5.09145 36079 ft 416 kts 18°
2026-04-13 10:47 42.54349 -5.06046 36099 ft 417 kts 18°
2026-04-13 10:47 42.59677 -5.02945 36102 ft 416 kts 18°
2026-04-13 10:48 42.65001 -4.99845 36095 ft 416 kts 18°
2026-04-13 10:48 42.70320 -4.96735 36094 ft 416 kts 18°
2026-04-13 10:49 42.75646 -4.93618 36120 ft 416 kts 18°
2026-04-13 10:49 42.80970 -4.90493 36101 ft 417 kts 18°
2026-04-13 10:50 42.86262 -4.87381 36090 ft 417 kts 18°
2026-04-13 10:50 42.91586 -4.84236 36090 ft 417 kts 18°
2026-04-13 10:51 42.96917 -4.81088 36099 ft 417 kts 18°
2026-04-13 10:51 43.02252 -4.77934 36103 ft 418 kts 18°
2026-04-13 10:52 43.07594 -4.74771 36105 ft 418 kts 18°
2026-04-13 10:52 43.12931 -4.71613 36109 ft 418 kts 18°
2026-04-13 10:53 43.18276 -4.68438 36101 ft 419 kts 19°
2026-04-13 10:53 43.23629 -4.65242 36099 ft 420 kts 19°
2026-04-13 10:54 43.29001 -4.62025 36102 ft 421 kts 19°
2026-04-13 10:54 43.34343 -4.58830 36103 ft 422 kts 19°
2026-04-13 10:55 43.39733 -4.55595 36120 ft 423 kts 19°
2026-04-13 10:55 43.45134 -4.52352 36121 ft 424 kts 19°
2026-04-13 10:56 43.50539 -4.49101 36122 ft 424 kts 19°
2026-04-13 10:56 43.55945 -4.45852 36138 ft 424 kts 19°
2026-04-13 10:57 43.61354 -4.42592 36126 ft 424 kts 19°
2026-04-13 10:57 43.66767 -4.39313 36122 ft 425 kts 19°
2026-04-13 10:58 43.72145 -4.36051 36119 ft 425 kts 19°
2026-04-13 10:58 43.77557 -4.32761 36123 ft 425 kts 19°
2026-04-13 10:59 43.82977 -4.29459 36122 ft 426 kts 19°
2026-04-13 10:59 43.88403 -4.26147 36123 ft 426 kts 19°
2026-04-13 11:00 43.93833 -4.22832 36116 ft 426 kts 19°
2026-04-13 11:00 43.99269 -4.19508 36125 ft 427 kts 19°
2026-04-13 11:01 44.04702 -4.16161 36122 ft 428 kts 19°
2026-04-13 11:01 44.10145 -4.12810 36111 ft 428 kts 19°
2026-04-13 11:02 44.15588 -4.09462 36117 ft 428 kts 19°
2026-04-13 11:02 44.21045 -4.06095 36117 ft 429 kts 19°
2026-04-13 11:03 44.26506 -4.02720 36104 ft 429 kts 19°
2026-04-13 11:03 44.31966 -3.99317 36101 ft 431 kts 22°
2026-04-13 11:04 44.37059 -3.94774 36130 ft 436 kts 29°
2026-04-13 11:04 44.42026 -3.89979 36115 ft 437 kts 29°
2026-04-13 11:05 44.47027 -3.85146 36122 ft 437 kts 30°
2026-04-13 11:05 44.52032 -3.80295 36117 ft 437 kts 29°
2026-04-13 11:06 44.57036 -3.75447 36127 ft 437 kts 29°
2026-04-13 11:06 44.62040 -3.70594 36118 ft 437 kts 29°
2026-04-13 11:07 44.67043 -3.65727 36111 ft 438 kts 29°
2026-04-13 11:07 44.72041 -3.60844 36107 ft 437 kts 29°
2026-04-13 11:08 44.77041 -3.55949 36108 ft 438 kts 29°
2026-04-13 11:08 44.82041 -3.51056 36107 ft 438 kts 29°
2026-04-13 11:09 44.87042 -3.46146 36104 ft 437 kts 30°
2026-04-13 11:09 44.91994 -3.41261 36118 ft 437 kts 30°
2026-04-13 11:10 44.96981 -3.36346 36115 ft 437 kts 29°
2026-04-13 11:10 45.01957 -3.31427 36108 ft 436 kts 30°
2026-04-13 11:11 45.06923 -3.26497 36098 ft 436 kts 30°
2026-04-13 11:11 45.11897 -3.21570 36094 ft 436 kts 29°
2026-04-13 11:12 45.16865 -3.16634 36091 ft 436 kts 29°
2026-04-13 11:12 45.21837 -3.11678 36089 ft 437 kts 30°
2026-04-13 11:13 45.26810 -3.06717 36098 ft 437 kts 30°
2026-04-13 11:13 45.31749 -3.01781 36096 ft 437 kts 30°
2026-04-13 11:14 45.36692 -2.96750 36104 ft 438 kts 30°
2026-04-13 11:14 45.41613 -2.91634 36097 ft 438 kts 31°
2026-04-13 11:15 45.46532 -2.86517 36090 ft 438 kts 30°
2026-04-13 11:15 45.51452 -2.81413 36084 ft 438 kts 30°
2026-04-13 11:16 45.56376 -2.76304 36084 ft 438 kts 30°
2026-04-13 11:16 45.61303 -2.71188 36091 ft 438 kts 31°
2026-04-13 11:17 45.66230 -2.66055 36080 ft 438 kts 31°
2026-04-13 11:17 45.71156 -2.60910 36072 ft 438 kts 31°
2026-04-13 11:18 45.76080 -2.55748 36084 ft 439 kts 31°
2026-04-13 11:18 45.81010 -2.50576 36081 ft 439 kts 31°
2026-04-13 11:19 45.85939 -2.45382 36075 ft 440 kts 31°
2026-04-13 11:19 45.90873 -2.40182 36076 ft 440 kts 31°
2026-04-13 11:20 45.95810 -2.34971 36103 ft 440 kts 31°
2026-04-13 11:20 46.00745 -2.29743 36091 ft 441 kts 31°
2026-04-13 11:21 46.05577 -2.24350 36085 ft 447 kts 38°
2026-04-13 11:21 46.09865 -2.17805 36081 ft 450 kts 41°
2026-04-13 11:22 46.14123 -2.11192 36082 ft 450 kts 41°
2026-04-13 11:22 46.18382 -2.04552 36086 ft 451 kts 41°
2026-04-13 11:23 46.22639 -1.97896 36101 ft 451 kts 41°
2026-04-13 11:23 46.26905 -1.91229 36075 ft 452 kts 41°
2026-04-13 11:24 46.31178 -1.84553 36082 ft 452 kts 41°
2026-04-13 11:24 46.35443 -1.77852 36076 ft 453 kts 42°
2026-04-13 11:25 46.39701 -1.71134 36075 ft 453 kts 42°
2026-04-13 11:25 46.43939 -1.64443 36069 ft 453 kts 42°
2026-04-13 11:26 46.48198 -1.57706 36079 ft 453 kts 42°
2026-04-13 11:26 46.52454 -1.50944 36071 ft 454 kts 42°
2026-04-13 11:27 46.56711 -1.44177 36078 ft 454 kts 42°
2026-04-13 11:27 46.60964 -1.37385 36070 ft 454 kts 43°
2026-04-13 11:28 46.65211 -1.30560 36062 ft 455 kts 43°
2026-04-13 11:28 46.69449 -1.23714 36060 ft 455 kts 43°
2026-04-13 11:29 46.73682 -1.16848 36066 ft 456 kts 44°
2026-04-13 11:29 46.77929 -1.09968 36039 ft 457 kts 44°
2026-04-13 11:30 46.82175 -1.03072 36048 ft 457 kts 44°
2026-04-13 11:30 46.84267 -0.99659 36295 ft 457 kts 44°
2026-04-13 11:30 46.86383 -0.96204 36516 ft 456 kts 44°
2026-04-13 11:31 46.88503 -0.92741 36774 ft 456 kts 44°
2026-04-13 11:31 46.90616 -0.89289 36982 ft 457 kts 44°
2026-04-13 11:31 46.94869 -0.82340 37043 ft 460 kts 44°
2026-04-13 11:32 46.99134 -0.75324 37035 ft 462 kts 45°
2026-04-13 11:32 47.03407 -0.68284 37040 ft 462 kts 45°
2026-04-13 11:33 47.07682 -0.61237 37036 ft 462 kts 45°
2026-04-13 11:34 47.14083 -0.50646 37035 ft 462 kts 45°
2026-04-13 11:34 47.18312 -0.43608 37050 ft 462 kts 45°
2026-04-13 11:35 47.22561 -0.36509 37039 ft 463 kts 45°
2026-04-13 11:35 47.26925 -0.29557 37033 ft 461 kts 41°
2026-04-13 11:36 47.30761 -0.24093 37029 ft 461 kts 40°
2026-04-13 11:36 47.35430 -0.17622 37030 ft 461 kts 40°
2026-04-13 11:37 47.40047 -0.11047 37044 ft 462 kts 41°
2026-04-13 11:37 47.44615 -0.04369 37037 ft 462 kts 41°
2026-04-13 11:38 47.49183 0.02322 37036 ft 463 kts 42°
2026-04-13 11:38 47.53783 0.09026 37023 ft 465 kts 42°
2026-04-13 11:39 47.58391 0.15766 37018 ft 466 kts 42°
2026-04-13 11:39 47.63009 0.22540 37025 ft 467 kts 42°
2026-04-13 11:40 47.67631 0.29333 37027 ft 468 kts 42°
2026-04-13 11:40 47.72254 0.36149 37025 ft 469 kts 42°
2026-04-13 11:41 47.76846 0.42937 37032 ft 469 kts 43°
2026-04-13 11:41 47.81472 0.49783 37031 ft 470 kts 43°
2026-04-13 11:42 47.86112 0.56678 37018 ft 472 kts 43°
2026-04-13 11:42 47.90753 0.63600 37016 ft 472 kts 43°
2026-04-13 11:43 47.95386 0.70550 37016 ft 472 kts 43°
2026-04-13 11:43 48.00030 0.77498 37012 ft 473 kts 43°
2026-04-13 11:44 48.04681 0.84459 37021 ft 474 kts 43°
2026-04-13 11:44 48.09330 0.91452 37004 ft 474 kts 44°
2026-04-13 11:45 48.13979 0.98483 37005 ft 475 kts 44°
2026-04-13 11:45 48.18630 1.05543 37002 ft 476 kts 44°
2026-04-13 11:46 48.23113 1.12840 37019 ft 477 kts 50°
2026-04-13 11:46 48.27293 1.20497 37011 ft 478 kts 50°
2026-04-13 11:47 48.31496 1.28224 37006 ft 478 kts 50°
2026-04-13 11:47 48.35711 1.35973 36989 ft 479 kts 51°
2026-04-13 11:48 48.39928 1.43767 36990 ft 480 kts 51°
2026-04-13 11:48 48.44137 1.51591 37010 ft 481 kts 51°
2026-04-13 11:49 48.48351 1.59430 37002 ft 482 kts 51°
2026-04-13 11:49 48.51149 1.64652 37003 ft 482 kts 51°
2026-04-13 11:50 48.55364 1.72523 37008 ft 483 kts 51°
2026-04-13 11:50 48.59594 1.80427 36984 ft 484 kts 52°
2026-04-13 11:51 48.63820 1.88360 37004 ft 485 kts 52°
2026-04-13 11:51 48.68047 1.96339 37009 ft 486 kts 52°
2026-04-13 11:52 48.72260 2.04329 37013 ft 486 kts 52°
2026-04-13 11:52 48.75710 2.13064 37013 ft 482 kts 70°
2026-04-13 11:53 48.77629 2.22686 37005 ft 480 kts 78°
2026-04-13 11:53 48.79392 2.32465 37013 ft 480 kts 77°
2026-04-13 11:54 48.81148 2.42234 37012 ft 480 kts 78°
2026-04-13 11:54 48.82887 2.52014 37015 ft 480 kts 78°
2026-04-13 11:55 48.84613 2.61799 37017 ft 480 kts 78°
2026-04-13 11:55 48.86332 2.71585 36996 ft 480 kts 78°
2026-04-13 11:56 48.88051 2.81390 36998 ft 480 kts 78°
2026-04-13 11:56 48.89756 2.91199 37002 ft 480 kts 78°
2026-04-13 11:57 48.91452 3.01024 37009 ft 480 kts 78°
2026-04-13 11:57 48.93146 3.10854 36996 ft 480 kts 78°
2026-04-13 11:58 48.94834 3.20684 37007 ft 480 kts 79°
2026-04-13 11:58 48.96494 3.30465 37018 ft 480 kts 79°
2026-04-13 11:59 48.98164 3.40315 37012 ft 480 kts 79°
2026-04-13 11:59 48.99821 3.50165 37013 ft 480 kts 79°
2026-04-13 12:00 49.01465 3.60006 37015 ft 479 kts 79°
2026-04-13 12:00 49.03105 3.69834 37026 ft 478 kts 79°
2026-04-13 12:01 49.04734 3.79648 37025 ft 477 kts 79°
2026-04-13 12:01 49.06344 3.89455 37019 ft 477 kts 79°
2026-04-13 12:02 49.07938 3.99265 37020 ft 476 kts 79°
2026-04-13 12:02 49.09529 4.09073 37012 ft 476 kts 79°
2026-04-13 12:03 49.11113 4.18809 37012 ft 476 kts 79°
2026-04-13 12:03 49.12698 4.28682 37006 ft 476 kts 80°
2026-04-13 12:04 49.14475 4.38343 37007 ft 479 kts 71°
2026-04-13 12:04 49.17041 4.47755 36993 ft 479 kts 70°
2026-04-13 12:05 49.19593 4.57163 36998 ft 479 kts 71°
2026-04-13 12:05 49.22136 4.66590 37011 ft 479 kts 71°
2026-04-13 12:06 49.24665 4.76020 37004 ft 479 kts 71°
2026-04-13 12:06 49.27192 4.85473 36997 ft 479 kts 71°
2026-04-13 12:07 49.29711 4.94928 36986 ft 479 kts 71°
2026-04-13 12:07 49.32216 5.04383 36995 ft 478 kts 71°
2026-04-13 12:08 49.34699 5.13777 36996 ft 478 kts 71°
2026-04-13 12:08 49.37186 5.23231 36992 ft 478 kts 71°
2026-04-13 12:09 49.39667 5.32693 36993 ft 477 kts 71°
2026-04-13 12:09 49.42139 5.42148 36985 ft 477 kts 72°
2026-04-13 12:10 49.44588 5.51600 36987 ft 475 kts 72°
2026-04-13 12:10 49.47022 5.61046 36990 ft 475 kts 72°
2026-04-13 12:11 49.49521 5.70451 36988 ft 477 kts 66°
2026-04-13 12:11 49.53341 5.78835 36971 ft 483 kts 47°
2026-04-13 12:12 49.58639 5.85259 36946 ft 487 kts 34°
2026-04-13 12:12 49.64324 5.90943 36952 ft 487 kts 34°
2026-04-13 12:13 49.70007 5.96664 36949 ft 488 kts 34°
2026-04-13 12:13 49.75689 6.02387 36955 ft 488 kts 34°
2026-04-13 12:14 49.81369 6.08133 36957 ft 488 kts 35°
2026-04-13 12:14 49.87103 6.13634 36948 ft 489 kts 27°
2026-04-13 12:15 49.93312 6.17982 36960 ft 490 kts 25°
2026-04-13 12:15 49.99526 6.22371 36946 ft 490 kts 26°
2026-04-13 12:16 50.05690 6.26898 36941 ft 491 kts 26°
2026-04-13 12:16 50.08777 6.29199 36553 ft 492 kts 27°
2026-04-13 12:16 50.11896 6.31520 35454 ft 501 kts 27°
2026-04-13 12:16 50.15058 6.33860 34502 ft 506 kts 27°
2026-04-13 12:17 50.18241 6.36208 33526 ft 509 kts 27°
2026-04-13 12:17 50.21448 6.38571 32684 ft 508 kts 27°
2026-04-13 12:17 50.24660 6.40939 31571 ft 513 kts 27°
2026-04-13 12:17 50.27842 6.43464 30618 ft 513 kts 34°
2026-04-13 12:18 50.30613 6.46918 29588 ft 508 kts 49°
2026-04-13 12:18 50.32756 6.51240 28645 ft 497 kts 64°
2026-04-13 12:18 50.34165 6.56058 28180 ft 478 kts 76°
2026-04-13 12:18 50.34889 6.60978 27454 ft 464 kts 89°
2026-04-13 12:19 50.34921 6.65947 26706 ft 450 kts 101°
2026-04-13 12:19 50.34610 6.70808 25865 ft 448 kts 101°
2026-04-13 12:19 50.34290 6.75623 25192 ft 443 kts 101°
2026-04-13 12:19 50.33977 6.80395 24586 ft 438 kts 101°
2026-04-13 12:20 50.33537 6.85079 23911 ft 429 kts 109°
2026-04-13 12:20 50.32634 6.89457 23311 ft 417 kts 118°
2026-04-13 12:20 50.31438 6.93537 22704 ft 409 kts 120°
2026-04-13 12:20 50.30252 6.97531 22219 ft 400 kts 120°
2026-04-13 12:21 50.29085 7.01448 21722 ft 395 kts 120°
2026-04-13 12:21 50.27927 7.05322 21201 ft 392 kts 120°
2026-04-13 12:21 50.26776 7.09164 20678 ft 388 kts 120°
2026-04-13 12:21 50.25635 7.12967 20190 ft 385 kts 119°
2026-04-13 12:22 50.24508 7.16728 19685 ft 380 kts 119°
2026-04-13 12:22 50.23394 7.20437 19200 ft 375 kts 119°
2026-04-13 12:22 50.22291 7.24107 18714 ft 371 kts 119°
2026-04-13 12:22 50.21199 7.27734 18232 ft 368 kts 119°
2026-04-13 12:23 50.20113 7.31336 17709 ft 364 kts 119°
2026-04-13 12:23 50.19081 7.34920 17236 ft 360 kts 116°
2026-04-13 12:23 50.18161 7.38548 16767 ft 360 kts 114°
2026-04-13 12:23 50.17301 7.42216 16303 ft 359 kts 113°
2026-04-13 12:24 50.16467 7.45889 15848 ft 359 kts 113°
2026-04-13 12:24 50.15645 7.49507 15384 ft 358 kts 113°
2026-04-13 12:24 50.14803 7.53146 14925 ft 356 kts 113°
2026-04-13 12:24 50.13950 7.56762 14460 ft 354 kts 114°
2026-04-13 12:25 50.13090 7.60345 13999 ft 352 kts 114°
2026-04-13 12:25 50.12227 7.63903 13523 ft 350 kts 114°
2026-04-13 12:25 50.11646 7.66297 13190 ft 349 kts 114°
2026-04-13 12:25 50.10562 7.70970 12616 ft 344 kts 111°
2026-04-13 12:26 50.10069 7.73364 12355 ft 343 kts 110°
2026-04-13 12:26 50.09389 7.76905 11932 ft 340 kts 109°
2026-04-13 12:26 50.08734 7.80436 11529 ft 338 kts 108°
2026-04-13 12:26 50.08347 7.84025 11242 ft 335 kts 95°
2026-04-13 12:27 50.08480 7.87634 11011 ft 334 kts 83°
2026-04-13 12:27 50.09925 7.94451 10944 ft 328 kts 71°
2026-04-13 12:27 50.10715 7.97673 10945 ft 310 kts 72°
2026-04-13 12:28 50.11469 8.00761 10762 ft 302 kts 72°
2026-04-13 12:28 50.12193 8.03814 10452 ft 298 kts 76°
2026-04-13 12:28 50.12442 8.06951 10109 ft 289 kts 98°
2026-04-13 12:28 50.11959 8.09929 9745 ft 281 kts 119°
2026-04-13 12:29 50.10845 8.12363 9351 ft 274 kts 139°
2026-04-13 12:29 50.09285 8.13995 8954 ft 269 kts 159°
2026-04-13 12:29 50.07485 8.14684 8546 ft 267 kts 178°
2026-04-13 12:29 50.05653 8.14368 8130 ft 266 kts 197°
2026-04-13 12:30 50.04019 8.13090 7877 ft 260 kts 216°
2026-04-13 12:30 50.02787 8.11116 7750 ft 252 kts 234°
2026-04-13 12:30 50.02042 8.08702 7624 ft 245 kts 252°
2026-04-13 12:30 50.01623 8.06172 7500 ft 238 kts 253°
2026-04-13 12:31 50.01218 8.03721 7368 ft 231 kts 253°
2026-04-13 12:31 50.00815 8.01324 7158 ft 228 kts 251°
2026-04-13 12:31 50.00283 7.99016 6909 ft 226 kts 247°
2026-04-13 12:31 49.99613 7.96830 6637 ft 223 kts 231°
2026-04-13 12:32 49.98452 7.95299 6378 ft 220 kts 204°
2026-04-13 12:32 49.96974 7.94788 6084 ft 219 kts 177°
2026-04-13 12:32 49.95515 7.95419 5762 ft 220 kts 149°
2026-04-13 12:32 49.94417 7.97052 5410 ft 222 kts 122°
2026-04-13 12:33 49.93923 7.99306 5089 ft 223 kts 98°
2026-04-13 12:33 49.93730 8.01680 5004 ft 222 kts 98°
2026-04-13 12:33 49.93531 8.04072 5009 ft 224 kts 98°
2026-04-13 12:33 49.93408 8.06445 5007 ft 225 kts 86°
2026-04-13 12:34 49.93789 8.08794 5004 ft 226 kts 70°
2026-04-13 12:34 49.94352 8.11081 5004 ft 227 kts 70°
2026-04-13 12:34 49.94915 8.13368 5005 ft 227 kts 70°
2026-04-13 12:34 49.95475 8.15662 5006 ft 227 kts 70°
2026-04-13 12:35 49.96032 8.17953 4903 ft 226 kts 71°
2026-04-13 12:35 49.96584 8.20220 4627 ft 223 kts 71°
2026-04-13 12:35 49.97130 8.22465 4304 ft 222 kts 71°
2026-04-13 12:35 49.97673 8.24702 3982 ft 221 kts 70°
2026-04-13 12:36 49.98213 8.26929 3661 ft 219 kts 70°
2026-04-13 12:36 49.98735 8.29083 3351 ft 207 kts 70°
2026-04-13 12:36 49.99231 8.31133 3060 ft 198 kts 69°
2026-04-13 12:36 49.99699 8.33068 2802 ft 184 kts 69°
2026-04-13 12:37 50.00135 8.34876 2512 ft 173 kts 69°
2026-04-13 12:37 50.00540 8.36555 2280 ft 162 kts 68°
2026-04-13 12:37 50.00922 8.38137 2044 ft 151 kts 68°
2026-04-13 12:37 50.01274 8.39598 1839 ft 140 kts 68°
2026-04-13 12:38 50.01610 8.40993 1632 ft 136 kts 67°
2026-04-13 12:38 50.01940 8.42361 1435 ft 135 kts 68°
2026-04-13 12:38 50.02267 8.43720 1222 ft 134 kts 67°
2026-04-13 12:38 50.02594 8.45080 1026 ft 134 kts 67°
2026-04-13 12:39 50.02922 8.46442 825 ft 135 kts 67°
2026-04-13 12:39 50.03252 8.47802 637 ft 134 kts 67°
2026-04-13 12:39 50.03577 8.49173 430 ft 135 kts 66°
2026-04-13 12:39 50.03897 8.50514 320 ft 122 kts 68°
2026-04-13 12:40 50.04140 8.51509 330 ft 74 kts 70°
2026-04-13 12:40 50.04300 8.52182 336 ft 56 kts 70°
2026-04-13 12:40 50.04384 8.52577 351 ft 31 kts 79°